Time;durP1;ratioP1;P1;durP2;ratioP2;P2;SDS_P1;SDS_P2;PMS_P1;PMS_P2;Temp;Humidity;BMP_temperature;BMP_pressure;BME280_temperature;BME280_humidity;BME280_pressure;Samples;Min_cycle;Max_cycle;Signal;HPM_P1;HPM_P2
2023/04/12 04:52:54;;;;;;;;;;;;;;;13.11;65.80;96085.44;4248350;27;10223;-63
2023/04/12 04:54:57;;;;;;;;;;;;;;;13.39;65.20;96090.19;4250102;27;5662;-63
2023/04/12 04:57:00;;;;;;;;;;;;;;;13.60;64.95;96086.19;4249700;27;5655;-63
2023/04/12 04:59:03;;;;;;;;;;;;;;;13.77;64.51;96084.44;4254658;27;5851;-63
2023/04/12 05:01:06;;;;;;;;;;;;;;;13.87;64.03;96086.53;4248897;27;5738;-62
2023/04/12 05:03:09;;;;;;;;;;;;;;;13.96;63.88;96080.66;4263048;27;5641;-63
2023/04/12 05:05:13;;;;;;;;;;;;;;;14.07;63.71;96089.66;4248461;27;5761;-63
2023/04/12 05:07:16;;;;;;;;;;;;;;;14.15;63.84;96083.16;4251815;27;5728;-64
2023/04/12 05:09:20;;;;;;;;;;;;;;;14.22;63.31;96097.16;4249299;27;5815;-64
2023/04/12 05:11:23;;;;;;;;;;;;;;;14.30;63.18;96102.13;4243687;27;5647;-63
2023/04/12 05:13:25;;;;;;;;;;;;;;;14.35;63.36;96115.50;4240304;27;5658;-63
2023/04/12 05:15:30;;;;;;;;;;;;;;;14.41;63.00;96114.59;4245216;27;5809;-63
2023/04/12 05:17:33;;;;;;;;;;;;;;;14.44;62.74;96103.50;4247504;27;5663;-63
2023/04/12 05:19:36;;;;;;;;;;;;;;;14.48;62.69;96119.81;4255782;27;5650;-63
2023/04/12 05:21:39;;;;;;;;;;;;;;;14.51;62.71;96108.72;4245505;27;5729;-62
2023/04/12 05:23:43;;;;;;;;;;;;;;;14.55;62.69;96100.03;4248093;27;5675;-64
2023/04/12 05:25:48;;;;;;;;;;;;;;;14.58;62.49;96106.72;4246724;27;5725;-62
2023/04/12 05:27:51;;;;;;;;;;;;;;;14.61;62.62;96114.25;4235826;27;5753;-62
2023/04/12 05:29:54;;;;;;;;;;;;;;;14.66;62.39;96113.53;4245231;27;5901;-64
2023/04/12 05:31:58;;;;;;;;;;;;;;;14.70;62.14;96117.34;4246245;27;5652;-63
2023/04/12 05:34:01;;;;;;;;;;;;;;;14.71;62.27;96105.66;4241584;27;5755;-62
2023/04/12 05:36:04;;;;;;;;;;;;;;;14.75;62.19;96114.78;4246758;27;5096;-63
2023/04/12 05:38:07;;;;;;;;;;;;;;;14.76;61.84;96103.09;4246575;27;5617;-63
2023/04/12 05:40:11;;;;;;;;;;;;;;;14.76;61.92;96100.44;4247271;27;6467;-63
2023/04/12 05:42:15;;;;;;;;;;;;;;;14.77;61.89;96102.06;4249031;27;5814;-62
2023/04/12 05:44:18;;;;;;;;;;;;;;;14.81;61.91;96097.88;4254608;27;5622;-63
2023/04/12 05:46:21;;;;;;;;;;;;;;;14.83;61.87;96090.44;4251348;27;5658;-63
2023/04/12 05:48:24;;;;;;;;;;;;;;;14.83;61.76;96095.78;4247378;27;5783;-63
2023/04/12 05:50:27;;;;;;;;;;;;;;;14.81;61.35;96095.22;4243855;27;5617;-63
2023/04/12 05:52:30;;;;;;;;;;;;;;;14.82;61.60;96088.84;4243831;27;5214;-62
2023/04/12 05:54:33;;;;;;;;;;;;;;;14.81;61.47;96081.91;4244759;27;6442;-63
2023/04/12 05:56:36;;;;;;;;;;;;;;;14.84;61.25;96098.22;4241940;27;5668;-63
2023/04/12 05:58:41;;;;;;;;;;;;;;;14.85;61.43;96109.66;4234369;28;5770;-62
2023/04/12 06:00:44;;;;;;;;;;;;;;;14.88;61.22;96098.56;4236280;27;5647;-63
2023/04/12 06:02:49;;;;;;;;;;;;;;;14.91;60.89;96087.41;4235383;28;5623;-63
2023/04/12 06:04:54;;;;;;;;;;;;;;;14.92;60.92;96099.69;4236614;27;5633;-63
2023/04/12 06:06:57;;;;;;;;;;;;;;;14.94;60.78;96094.13;4236127;27;5666;-64
2023/04/12 06:09:03;;;;;;;;;;;;;;;14.93;60.57;96089.84;4236011;27;5738;-64
2023/04/12 06:11:06;;;;;;;;;;;;;;;14.90;60.86;96091.13;4235894;27;5818;-63
2023/04/12 06:13:09;;;;;;;;;;;;;;;14.89;60.73;96084.19;4243324;27;5621;-64
2023/04/12 06:15:14;;;;;;;;;;;;;;;14.91;60.66;96082.09;4236594;27;5629;-63
2023/04/12 06:17:17;;;;;;;;;;;;;;;14.95;60.59;96088.59;4235069;27;5749;-64
2023/04/12 06:19:20;;;;;;;;;;;;;;;14.99;60.34;96081.72;4234495;27;5654;-62
2023/04/12 06:21:23;;;;;;;;;;;;;;;15.02;60.22;96078.59;4235918;27;5643;-64
2023/04/12 06:23:26;;;;;;;;;;;;;;;15.04;60.37;96081.81;4235126;28;5821;-63
2023/04/12 06:25:28;;;;;;;;;;;;;;;15.08;60.28;96084.81;4239585;27;5662;-63
2023/04/12 06:27:31;;;;;;;;;;;;;;;15.10;60.04;96075.53;4233924;27;5643;-64
2023/04/12 06:29:34;;;;;;;;;;;;;;;15.14;59.89;96070.53;4240903;27;5654;-63
2023/04/12 06:31:38;;;;;;;;;;;;;;;15.19;59.65;96069.84;4230555;27;5679;-62
2023/04/12 06:33:41;;;;;;;;;;;;;;;15.20;59.74;96066.13;4233574;28;6507;-63
2023/04/12 06:35:44;;;;;;;;;;;;;;;15.22;59.76;96064.84;4243279;27;6347;-64
2023/04/12 06:37:47;;;;;;;;;;;;;;;15.22;59.65;96056.03;4226994;28;5722;-63
2023/04/12 06:39:51;;;;;;;;;;;;;;;15.22;59.50;96053.38;4235128;27;5828;-63
2023/04/12 06:41:56;;;;;;;;;;;;;;;15.25;59.43;96059.03;4234824;28;5835;-64
2023/04/12 06:43:59;;;;;;;;;;;;;;;15.27;59.35;96058.78;4233266;27;5868;-63
2023/04/12 06:46:02;;;;;;;;;;;;;;;15.30;59.07;96063.66;4233376;27;5605;-64
2023/04/12 06:48:06;;;;;;;;;;;;;;;15.30;58.94;96077.75;4243217;27;6411;-64
2023/04/12 06:50:10;;;;;;;;;;;;;;;15.35;58.75;96088.50;4231777;27;5668;-64
2023/04/12 06:52:13;;;;;;;;;;;;;;;15.35;58.93;96080.50;4239403;27;5645;-64
2023/04/12 06:54:16;;;;;;;;;;;;;;;15.38;58.94;96092.53;4239526;27;5655;-64
2023/04/12 06:56:18;;;;;;;;;;;;;;;15.41;58.47;96082.22;4239089;27;5641;-64
2023/04/12 06:58:21;;;;;;;;;;;;;;;15.44;58.46;96072.94;4242249;27;5801;-63
2023/04/12 07:00:24;;;;;;;;;;;;;;;15.47;58.33;96074.31;4240071;27;5622;-63
2023/04/12 07:02:27;;;;;;;;;;;;;;;15.50;58.40;96063.97;4237887;27;5654;-62
2023/04/12 07:04:32;;;;;;;;;;;;;;;15.53;58.17;96063.50;4247063;27;5625;-63
2023/04/12 07:06:34;;;;;;;;;;;;;;;15.54;58.19;96054.47;4243812;27;5714;-62
2023/04/12 07:08:37;;;;;;;;;;;;;;;15.57;58.04;96045.16;4243109;27;5638;-63
2023/04/12 07:10:40;;;;;;;;;;;;;;;15.58;57.88;96044.91;4250579;27;5768;-62
2023/04/12 07:12:45;;;;;;;;;;;;;;;15.61;57.88;96047.13;4232369;27;5670;-61
2023/04/12 07:14:48;;;;;;;;;;;;;;;15.61;58.03;96038.31;4234886;27;5633;-62
2023/04/12 07:16:58;;;;;;;;;;;;;;;15.64;58.08;96033.34;4227200;27;5645;-61
2023/04/12 07:19:01;;;;;;;;;;;;;;;15.68;57.63;96029.13;4238349;27;5657;-61
2023/04/12 07:21:06;;;;;;;;;;;;;;;15.71;57.46;96025.97;4233318;27;5770;-63
2023/04/12 07:23:09;;;;;;;;;;;;;;;15.72;57.33;96032.91;4243719;27;5733;-62
2023/04/12 07:25:12;;;;;;;;;;;;;;;15.72;57.30;96024.09;4239774;27;5741;-62
2023/04/12 07:27:15;;;;;;;;;;;;;;;15.72;57.55;96010.78;4233628;28;6540;-61
2023/04/12 07:29:18;;;;;;;;;;;;;;;15.71;57.23;96007.31;4240419;27;5127;-62
2023/04/12 07:31:24;;;;;;;;;;;;;;;15.75;57.48;95993.53;4233567;27;6053;-62
2023/04/12 07:33:27;;;;;;;;;;;;;;;15.77;57.51;96000.22;4238342;27;5621;-63
2023/04/12 07:35:30;;;;;;;;;;;;;;;15.81;57.12;96005.84;4244310;27;6523;-62
2023/04/12 07:37:35;;;;;;;;;;;;;;;15.85;57.06;96015.75;4235156;27;5642;-62
2023/04/12 07:39:39;;;;;;;;;;;;;;;15.88;57.01;96014.50;4232587;28;5663;-62
2023/04/12 07:41:45;;;;;;;;;;;;;;;15.92;56.92;96018.28;4238909;27;5866;-62
2023/04/12 07:43:48;;;;;;;;;;;;;;;15.92;56.92;96011.09;4233309;27;5647;-62
2023/04/12 07:45:51;;;;;;;;;;;;;;;15.92;56.76;96012.94;4239117;27;5613;-63
2023/04/12 07:47:54;;;;;;;;;;;;;;;15.95;56.65;96017.78;4230494;27;5666;-63
2023/04/12 07:49:57;;;;;;;;;;;;;;;15.97;56.64;96007.69;4243143;27;5662;-62
2023/04/12 07:52:00;;;;;;;;;;;;;;;15.98;56.65;96011.97;4250346;27;5606;-62
2023/04/12 07:54:05;;;;;;;;;;;;;;;16.01;56.46;96006.94;4245017;27;5817;-62
2023/04/12 07:56:08;;;;;;;;;;;;;;;16.06;56.50;96003.53;4251772;27;5636;-62
2023/04/12 07:58:12;;;;;;;;;;;;;;;16.09;56.22;96003.06;4242889;27;5626;-63
2023/04/12 08:00:16;;;;;;;;;;;;;;;16.11;56.15;96008.94;4248135;27;5651;-62
2023/04/12 08:02:23;;;;;;;;;;;;;;;16.09;55.94;96005.72;4243024;27;5822;-62
2023/04/12 08:04:27;;;;;;;;;;;;;;;16.09;55.89;96011.06;4243033;27;5643;-63
2023/04/12 08:06:32;;;;;;;;;;;;;;;16.09;55.93;96018.25;4240158;27;5656;-62
2023/04/12 08:08:36;;;;;;;;;;;;;;;16.09;55.90;96013.72;4236610;27;5664;-62
2023/04/12 08:10:40;;;;;;;;;;;;;;;16.10;55.79;96022.53;4249658;27;5707;-62
2023/04/12 08:12:44;;;;;;;;;;;;;;;16.13;55.55;96012.16;4251465;27;5859;-63
2023/04/12 08:14:47;;;;;;;;;;;;;;;16.17;55.53;96015.94;4243584;27;5765;-62
2023/04/12 08:16:50;;;;;;;;;;;;;;;16.18;55.57;96020.22;4242383;27;5692;-62
2023/04/12 08:18:53;;;;;;;;;;;;;;;16.20;55.26;96022.66;4242565;27;5658;-62
2023/04/12 08:20:56;;;;;;;;;;;;;;;16.21;55.17;96025.06;4242858;27;5643;-63
2023/04/12 08:22:59;;;;;;;;;;;;;;;16.23;55.28;96014.16;4242620;27;5805;-63
2023/04/12 08:25:01;;;;;;;;;;;;;;;16.27;55.07;96010.75;4242823;27;5643;-62
2023/04/12 08:27:06;;;;;;;;;;;;;;;16.28;55.22;96012.34;4249541;27;5622;-62
2023/04/12 08:29:09;;;;;;;;;;;;;;;16.30;54.99;96001.44;4245105;27;5695;-62
2023/04/12 08:31:12;;;;;;;;;;;;;;;16.31;55.00;96011.06;4239438;27;5643;-61
2023/04/12 08:33:16;;;;;;;;;;;;;;;16.34;54.82;96015.09;4234304;28;5639;-63
2023/04/12 08:35:19;;;;;;;;;;;;;;;16.34;54.67;96004.44;4242508;27;5769;-62
2023/04/12 08:37:22;;;;;;;;;;;;;;;16.35;54.57;96016.72;4238619;27;5630;-62
2023/04/12 08:39:25;;;;;;;;;;;;;;;16.38;54.50;96000.19;4251406;27;5757;-63
2023/04/12 08:41:28;;;;;;;;;;;;;;;16.39;54.50;96012.47;4242436;27;5634;-62
2023/04/12 08:43:34;;;;;;;;;;;;;;;16.41;54.41;96005.03;4236754;27;5837;-62
2023/04/12 08:45:38;;;;;;;;;;;;;;;16.43;54.41;96001.06;4249328;27;5626;-63
2023/04/12 08:47:42;;;;;;;;;;;;;;;16.47;54.19;96002.19;4235587;27;5749;-62
2023/04/12 08:49:45;;;;;;;;;;;;;;;16.51;54.22;95997.16;4242358;27;5765;-62
2023/04/12 08:51:48;;;;;;;;;;;;;;;16.56;53.95;95986.53;4241868;27;5814;-62
2023/04/12 08:53:52;;;;;;;;;;;;;;;16.58;53.68;95979.09;4251250;27;6324;-62
2023/04/12 08:55:55;;;;;;;;;;;;;;;16.56;53.78;95976.69;4217296;28;5672;-62
2023/04/12 08:57:59;;;;;;;;;;;;;;;16.56;53.63;95983.88;4225002;28;6206;-61
2023/04/12 09:00:04;;;;;;;;;;;;;;;16.54;53.46;95988.66;4243838;27;5649;-62
2023/04/12 09:02:07;;;;;;;;;;;;;;;16.52;53.40;95978.22;4242273;27;5828;-62
2023/04/12 09:04:12;;;;;;;;;;;;;;;16.51;53.58;95973.94;4248035;27;5658;-62
2023/04/12 09:06:15;;;;;;;;;;;;;;;16.54;53.44;95972.66;4234122;28;5651;-62
2023/04/12 09:08:18;;;;;;;;;;;;;;;16.55;53.06;95967.06;4246075;27;5644;-62
2023/04/12 09:10:32;;;;;;;;;;;;;;;16.49;53.06;95968.06;4242093;27;5717;-63
2023/04/12 09:12:35;;;;;;;;;;;;;;;16.46;52.74;95962.41;4250630;27;5629;-63
2023/04/12 09:14:45;;;;;;;;;;;;;;;16.41;52.54;95959.69;4234759;27;5647;-63
2023/04/12 09:16:50;;;;;;;;;;;;;;;16.35;52.78;95958.03;4233861;28;5746;-63
2023/04/12 09:18:54;;;;;;;;;;;;;;;16.33;52.70;95957.47;4233969;27;5681;-61
2023/04/12 09:21:10;;;;;;;;;;;;;;;16.29;52.45;95952.63;4234124;27;5694;-63
2023/04/12 09:23:21;;;;;;;;;;;;;;;16.27;52.57;95957.41;4241836;27;6484;-61
2023/04/12 09:25:47;;;;;;;;;;;;;;;16.29;52.42;95954.47;4247002;27;5618;-61
2023/04/12 09:27:50;;;;;;;;;;;;;;;16.29;52.24;95955.28;4248981;27;5650;-61
2023/04/12 09:30:07;;;;;;;;;;;;;;;16.32;52.26;95958.53;4245481;27;5647;-61
2023/04/12 09:32:11;;;;;;;;;;;;;;;16.34;52.13;95956.41;4251387;27;5625;-61
2023/04/12 09:34:14;;;;;;;;;;;;;;;16.37;52.18;95956.72;4240342;27;5614;-62
2023/04/12 09:36:18;;;;;;;;;;;;;;;16.38;52.11;95949.53;4254097;27;5743;-61
2023/04/12 09:38:21;;;;;;;;;;;;;;;16.39;51.96;95954.59;4241233;27;5639;-62
2023/04/12 09:40:25;;;;;;;;;;;;;;;16.40;52.13;95947.41;4236898;28;5782;-62
2023/04/12 09:42:28;;;;;;;;;;;;;;;16.43;52.17;95947.72;4236539;28;5068;-61
2023/04/12 09:44:36;;;;;;;;;;;;;;;16.50;51.79;95948.31;4245049;27;5643;-62
2023/04/12 09:46:50;;;;;;;;;;;;;;;16.56;51.85;95935.84;4252158;27;5634;-62
2023/04/12 09:48:57;;;;;;;;;;;;;;;16.64;51.65;95929.25;4254188;27;5692;-62
2023/04/12 09:51:01;;;;;;;;;;;;;;;16.68;51.40;95935.72;4243890;27;5741;-62
2023/04/12 09:53:15;;;;;;;;;;;;;;;16.68;51.35;95931.19;4247051;27;5748;-62
2023/04/12 09:55:21;;;;;;;;;;;;;;;16.68;51.43;95922.38;4250002;27;5072;-63
2023/04/12 09:57:25;;;;;;;;;;;;;;;16.69;51.30;95932.00;4241105;27;5626;-62
2023/04/12 09:59:31;;;;;;;;;;;;;;;16.68;51.23;95931.19;4253981;27;5731;-62
2023/04/12 10:01:36;;;;;;;;;;;;;;;16.66;51.31;95930.63;4244934;27;5629;-62
2023/04/12 10:03:39;;;;;;;;;;;;;;;16.65;51.14;95941.53;4246821;27;5664;-62
2023/04/12 10:05:44;;;;;;;;;;;;;;;16.59;51.38;95932.66;4252183;27;5636;-62
2023/04/12 10:07:47;;;;;;;;;;;;;;;16.56;51.34;95933.19;4237095;27;5750;-62
2023/04/12 10:09:51;;;;;;;;;;;;;;;16.54;51.42;95930.78;4236509;28;5781;-62
2023/04/12 10:11:54;;;;;;;;;;;;;;;16.50;51.53;95934.97;4237107;27;5670;-65
2023/04/12 10:13:58;;;;;;;;;;;;;;;16.49;51.35;95929.91;4253262;27;5630;-62
2023/04/12 10:16:04;;;;;;;;;;;;;;;16.44;51.34;95924.53;4251991;27;5633;-62
2023/04/12 10:18:07;;;;;;;;;;;;;;;16.44;51.24;95935.19;4224460;28;5608;-62
2023/04/12 10:20:11;;;;;;;;;;;;;;;16.41;51.12;95914.34;4221989;28;5888;-61
2023/04/12 10:22:18;;;;;;;;;;;;;;;16.41;51.27;95914.34;4236422;28;5741;-62
2023/04/12 10:24:22;;;;;;;;;;;;;;;16.38;51.03;95925.50;4236216;28;5627;-62
2023/04/12 10:26:25;;;;;;;;;;;;;;;16.36;50.98;95916.97;4249415;27;5712;-61
2023/04/12 10:28:28;;;;;;;;;;;;;;;16.35;50.87;95912.69;4252968;27;5716;-62
2023/04/12 10:30:32;;;;;;;;;;;;;;;16.29;50.87;95923.28;4253290;27;6310;-62
2023/04/12 10:32:36;;;;;;;;;;;;;;;16.28;50.85;95905.66;4253199;27;5677;-62
2023/04/12 10:34:42;;;;;;;;;;;;;;;16.30;50.82;95906.22;4244458;27;5618;-62
2023/04/12 10:36:53;;;;;;;;;;;;;;;16.29;50.53;95909.94;4236849;27;5760;-62
2023/04/12 10:39:10;;;;;;;;;;;;;;;16.30;50.55;95914.22;4236137;27;5777;-62
2023/04/12 10:41:15;;;;;;;;;;;;;;;16.31;50.49;95909.72;4244120;27;5639;-62
2023/04/12 10:43:25;;;;;;;;;;;;;;;16.31;50.32;95904.38;4239503;27;5645;-62
2023/04/12 10:45:38;;;;;;;;;;;;;;;16.30;50.42;95900.09;4244398;27;5629;-62
2023/04/12 10:48:00;;;;;;;;;;;;;;;16.29;50.51;95896.59;4245915;27;5745;-62
2023/04/12 10:50:23;;;;;;;;;;;;;;;16.29;50.24;95893.13;4237489;27;6336;-62
2023/04/12 10:52:26;;;;;;;;;;;;;;;16.30;50.15;95898.22;4247543;27;5670;-62
2023/04/12 10:54:35;;;;;;;;;;;;;;;16.32;50.25;95898.00;4241057;27;5729;-62
2023/04/12 10:56:40;;;;;;;;;;;;;;;16.33;50.26;95893.47;4252866;27;5626;-62
2023/04/12 10:58:56;;;;;;;;;;;;;;;16.30;50.00;95894.75;4236607;27;5803;-61
2023/04/12 11:01:10;;;;;;;;;;;;;;;16.27;50.12;95898.72;4236995;27;5641;-62
2023/04/12 11:03:14;;;;;;;;;;;;;;;16.24;49.88;95891.22;4235833;28;5654;-62
2023/04/12 11:05:18;;;;;;;;;;;;;;;16.21;49.94;95889.06;4247743;27;6437;-62
2023/04/12 11:07:21;;;;;;;;;;;;;;;16.17;50.14;95889.81;4239945;27;5651;-62
2023/04/12 11:09:26;;;;;;;;;;;;;;;16.15;50.05;95898.06;4240056;27;5729;-62
2023/04/12 11:11:34;;;;;;;;;;;;;;;16.10;49.94;95892.69;4243921;27;5629;-62
2023/04/12 11:13:39;;;;;;;;;;;;;;;16.09;50.12;95896.41;4245746;27;5655;-61
2023/04/12 11:15:42;;;;;;;;;;;;;;;16.05;49.74;95894.47;4235528;28;5651;-61
2023/04/12 11:17:54;;;;;;;;;;;;;;;16.00;49.96;95901.38;4243017;27;5701;-62
2023/04/12 11:19:59;;;;;;;;;;;;;;;15.99;50.11;95902.44;4220041;27;5821;-62
2023/04/12 11:22:04;;;;;;;;;;;;;;;15.96;50.11;95904.75;4242519;27;5666;-62
2023/04/12 11:24:07;;;;;;;;;;;;;;;15.97;50.04;95909.88;4246044;27;5839;-62
2023/04/12 11:26:10;;;;;;;;;;;;;;;15.97;50.09;95901.06;4249473;27;5752;-61
2023/04/12 11:28:18;;;;;;;;;;;;;;;15.98;50.06;95900.81;4238026;27;5645;-61
2023/04/12 11:30:31;;;;;;;;;;;;;;;16.00;50.27;95903.22;4237985;27;6356;-61
2023/04/12 11:32:34;;;;;;;;;;;;;;;16.02;50.54;95895.78;4243354;27;5663;-62
2023/04/12 11:34:37;;;;;;;;;;;;;;;16.06;50.57;95880.88;4235108;27;5694;-62
2023/04/12 11:36:41;;;;;;;;;;;;;;;16.07;50.43;95882.50;4235137;28;5733;-62
2023/04/12 11:38:44;;;;;;;;;;;;;;;16.11;50.45;95880.97;4251028;27;5626;-62
2023/04/12 11:40:49;;;;;;;;;;;;;;;16.15;50.38;95874.06;4251786;27;5625;-61
2023/04/12 11:42:52;;;;;;;;;;;;;;;16.18;50.26;95873.56;4237186;27;5645;-63
2023/04/12 11:44:56;;;;;;;;;;;;;;;16.17;50.48;95871.94;4234293;27;7154;-63
2023/04/12 11:47:13;;;;;;;;;;;;;;;16.21;50.42;95883.75;4239332;27;6430;-62
2023/04/12 11:49:17;;;;;;;;;;;;;;;16.26;50.28;95883.78;4235027;28;5650;-62
2023/04/12 11:51:21;;;;;;;;;;;;;;;16.32;50.22;95873.19;4237309;27;5560;-67
2023/04/12 11:53:27;;;;;;;;;;;;;;;16.38;50.35;95877.50;4240968;27;5711;-66
2023/04/12 11:55:30;;;;;;;;;;;;;;;16.40;50.10;95872.72;4248374;27;5617;-65
2023/04/12 11:57:34;;;;;;;;;;;;;;;16.41;50.20;95867.13;4239638;27;5621;-64
2023/04/12 11:59:37;;;;;;;;;;;;;;;16.45;49.92;95864.78;4242189;27;5634;-65
2023/04/12 12:01:41;;;;;;;;;;;;;;;16.45;50.08;95865.59;4243975;27;5662;-64
2023/04/12 12:03:45;;;;;;;;;;;;;;;16.48;49.86;95867.72;4233746;28;5650;-64
2023/04/12 12:05:49;;;;;;;;;;;;;;;16.50;49.94;95859.47;4242224;27;5655;-64
2023/04/12 12:07:54;;;;;;;;;;;;;;;16.50;49.78;95868.28;4236776;27;5643;-64
2023/04/12 12:09:58;;;;;;;;;;;;;;;16.50;50.06;95864.81;4250837;27;5636;-65
2023/04/12 12:12:01;;;;;;;;;;;;;;;16.50;49.98;95867.47;4234511;27;5659;-65
2023/04/12 12:14:06;;;;;;;;;;;;;;;16.48;50.08;95866.94;4230759;27;5764;-65
2023/04/12 12:16:09;;;;;;;;;;;;;;;16.45;50.02;95864.78;4235813;27;5761;-65
2023/04/12 12:18:14;;;;;;;;;;;;;;;16.43;49.93;95875.69;4229070;27;5650;-65
2023/04/12 12:20:21;;;;;;;;;;;;;;;16.42;49.92;95875.94;4227681;27;6490;-65
2023/04/12 12:22:24;;;;;;;;;;;;;;;16.38;50.14;95886.31;4226957;28;5749;-64
2023/04/12 12:24:28;;;;;;;;;;;;;;;16.37;50.11;95892.69;4219988;27;5672;-64
2023/04/12 12:26:31;;;;;;;;;;;;;;;16.37;50.39;95892.69;4224690;27;6425;-64
2023/04/12 12:28:37;;;;;;;;;;;;;;;16.36;50.61;95903.63;4231602;27;5791;-64
2023/04/12 12:30:40;;;;;;;;;;;;;;;16.34;50.50;95898.53;4229662;27;5650;-65
2023/04/12 12:32:44;;;;;;;;;;;;;;;16.30;50.43;95898.22;4236256;27;5657;-64
2023/04/12 12:34:53;;;;;;;;;;;;;;;16.21;50.77;95894.41;4241382;27;5962;-64
2023/04/12 12:36:56;;;;;;;;;;;;;;;16.12;50.86;95885.25;4229455;28;8438;-65
2023/04/12 12:39:05;;;;;;;;;;;;;;;16.08;50.89;95878.78;4219527;28;5193;-65
2023/04/12 12:41:18;;;;;;;;;;;;;;;16.02;51.12;95869.94;4229204;28;5651;-65
2023/04/12 12:43:21;;;;;;;;;;;;;;;16.01;51.53;95871.00;4234055;27;7331;-65
2023/04/12 12:45:26;;;;;;;;;;;;;;;16.00;51.41;95865.91;4229747;28;5811;-62
2023/04/12 12:47:28;;;;;;;;;;;;;;;15.96;51.68;95875.44;4237659;27;5625;-65
2023/04/12 12:49:31;;;;;;;;;;;;;;;15.92;51.69;95874.34;4239242;27;5643;-65
2023/04/12 12:51:36;;;;;;;;;;;;;;;15.88;51.77;95870.56;4231133;27;5666;-64
2023/04/12 12:53:40;;;;;;;;;;;;;;;15.82;51.93;95880.34;4231151;28;5731;-65
2023/04/12 12:55:43;;;;;;;;;;;;;;;15.81;52.02;95884.06;4226292;27;5658;-65
2023/04/12 12:57:47;;;;;;;;;;;;;;;15.79;52.10;95880.03;4239964;27;5715;-65
2023/04/12 13:00:11;;;;;;;;;;;;;;;15.80;52.18;95874.47;4225142;27;5787;-65
2023/04/12 13:02:14;;;;;;;;;;;;;;;15.81;52.06;95885.94;4231116;27;5805;-65
2023/04/12 13:04:17;;;;;;;;;;;;;;;15.81;52.32;95888.59;4233918;27;5139;-65
2023/04/12 13:06:20;;;;;;;;;;;;;;;15.80;52.37;95895.78;4233828;27;5676;-65
2023/04/12 13:08:25;;;;;;;;;;;;;;;15.78;52.19;95889.09;4234043;28;5742;-64
2023/04/12 13:10:28;;;;;;;;;;;;;;;15.74;51.88;95886.09;4233562;27;5682;-65
2023/04/12 13:12:31;;;;;;;;;;;;;;;15.77;52.29;95887.50;4238752;27;5750;-65
2023/04/12 13:14:34;;;;;;;;;;;;;;;15.78;52.08;95891.75;4230432;27;5853;-65
2023/04/12 13:16:37;;;;;;;;;;;;;;;15.77;52.33;95898.16;4232522;28;5668;-65
2023/04/12 13:18:40;;;;;;;;;;;;;;;15.77;52.17;95890.16;4242604;27;5662;-65
2023/04/12 13:20:44;;;;;;;;;;;;;;;15.81;52.08;95888.59;4231125;27;5687;-64
2023/04/12 13:22:47;;;;;;;;;;;;;;;15.83;52.28;95892.63;4229462;27;5660;-65
2023/04/12 13:24:51;;;;;;;;;;;;;;;15.84;52.46;95893.41;4238205;27;5100;-65
2023/04/12 13:26:54;;;;;;;;;;;;;;;15.87;52.29;95888.41;4228845;27;7703;-65
2023/04/12 13:28:57;;;;;;;;;;;;;;;15.88;52.35;95892.69;4233110;27;5665;-66
2023/04/12 13:31:01;;;;;;;;;;;;;;;15.89;52.64;95880.16;4232918;27;5655;-65
2023/04/12 13:33:03;;;;;;;;;;;;;;;15.91;52.73;95886.06;4234822;27;5646;-65
2023/04/12 13:35:07;;;;;;;;;;;;;;;15.93;52.78;95882.06;4235160;27;5753;-65
2023/04/12 13:37:09;;;;;;;;;;;;;;;15.96;52.71;95876.25;4235662;27;5822;-66
2023/04/12 13:39:12;;;;;;;;;;;;;;;15.98;52.77;95876.03;4230645;27;5853;-66
2023/04/12 13:41:17;;;;;;;;;;;;;;;15.99;52.97;95874.97;4234310;27;5839;-66
2023/04/12 13:43:20;;;;;;;;;;;;;;;15.99;52.90;95870.44;4234849;28;5715;-65
2023/04/12 13:45:23;;;;;;;;;;;;;;;15.98;53.11;95873.34;4248341;27;5823;-66
2023/04/12 13:47:26;;;;;;;;;;;;;;;15.95;53.35;95863.97;4236751;27;6483;-66
2023/04/12 13:49:29;;;;;;;;;;;;;;;15.90;53.42;95871.13;4226734;27;5689;-65
2023/04/12 13:51:32;;;;;;;;;;;;;;;15.90;53.31;95868.47;4234887;27;5634;-65
2023/04/12 13:53:35;;;;;;;;;;;;;;;15.87;53.54;95861.78;4229239;27;5722;-65
2023/04/12 13:55:38;;;;;;;;;;;;;;;15.87;53.51;95860.97;4238988;27;5766;-66
2023/04/12 13:57:42;;;;;;;;;;;;;;;15.88;53.56;95863.38;4228382;28;5815;-64
2023/04/12 13:59:45;;;;;;;;;;;;;;;15.85;53.78;95868.38;4234817;27;5649;-66
2023/04/12 14:01:48;;;;;;;;;;;;;;;15.84;53.93;95869.44;4233624;27;6442;-66
2023/04/12 14:03:52;;;;;;;;;;;;;;;15.81;53.95;95865.41;4231381;27;5672;-66
2023/04/12 14:05:55;;;;;;;;;;;;;;;15.79;53.93;95856.88;4225106;27;5830;-66
2023/04/12 14:07:58;;;;;;;;;;;;;;;15.78;54.31;95852.59;4230807;27;5617;-66
2023/04/12 14:10:00;;;;;;;;;;;;;;;15.80;54.18;95852.34;4222091;28;5999;-66
2023/04/12 14:12:03;;;;;;;;;;;;;;;15.81;54.26;95851.28;4226387;27;5676;-66
2023/04/12 14:14:08;;;;;;;;;;;;;;;15.80;54.42;95852.34;4227690;27;5918;-66
2023/04/12 14:16:11;;;;;;;;;;;;;;;15.79;54.55;95845.41;4228306;27;5809;-65
2023/04/12 14:18:14;;;;;;;;;;;;;;;15.80;54.55;95839.00;4231624;27;5613;-65
2023/04/12 14:20:18;;;;;;;;;;;;;;;15.82;54.43;95847.56;4223728;27;5717;-65
2023/04/12 14:22:21;;;;;;;;;;;;;;;15.84;54.85;95842.78;4224863;28;6388;-65
2023/04/12 14:24:25;;;;;;;;;;;;;;;15.84;54.85;95840.94;4231679;27;5621;-65
2023/04/12 14:26:28;;;;;;;;;;;;;;;15.85;54.85;95847.06;4229782;27;5861;-66
2023/04/12 14:28:32;;;;;;;;;;;;;;;15.82;54.94;95843.03;4227879;27;5647;-65
2023/04/12 14:30:36;;;;;;;;;;;;;;;15.82;55.25;95836.91;4227507;28;5743;-65
2023/04/12 14:32:39;;;;;;;;;;;;;;;15.81;55.23;95821.97;4234113;28;5730;-65
2023/04/12 14:34:43;;;;;;;;;;;;;;;15.84;55.36;95827.59;4240286;27;5695;-65
2023/04/12 14:36:45;;;;;;;;;;;;;;;15.86;55.24;95820.19;4226705;27;5672;-65
2023/04/12 14:38:49;;;;;;;;;;;;;;;15.85;55.54;95818.53;4241949;27;5734;-65
2023/04/12 14:40:53;;;;;;;;;;;;;;;15.82;55.59;95820.91;4223852;28;5853;-65
2023/04/12 14:42:55;;;;;;;;;;;;;;;15.81;55.59;95811.31;4234332;28;5735;-64
2023/04/12 14:45:00;;;;;;;;;;;;;;;15.80;55.79;95807.03;4233282;27;5766;-64
2023/04/12 14:47:04;;;;;;;;;;;;;;;15.81;55.64;95811.31;4232248;27;5870;-64
2023/04/12 14:49:07;;;;;;;;;;;;;;;15.81;55.65;95803.31;4221640;27;5760;-64
2023/04/12 14:51:09;;;;;;;;;;;;;;;15.79;55.71;95808.91;4231113;27;5659;-65
2023/04/12 14:53:15;;;;;;;;;;;;;;;15.79;55.93;95814.22;4222622;27;5787;-63
2023/04/12 14:55:18;;;;;;;;;;;;;;;15.76;56.21;95816.59;4232290;28;5658;-67
2023/04/12 14:57:21;;;;;;;;;;;;;;;15.73;56.04;95818.69;4221884;28;5113;-63
2023/04/12 14:59:25;;;;;;;;;;;;;;;15.70;56.17;95813.84;4225403;27;5825;-69
2023/04/12 15:01:28;;;;;;;;;;;;;;;15.66;56.55;95812.75;4222637;27;5799;-63
2023/04/12 15:03:34;;;;;;;;;;;;;;;15.65;56.39;95816.47;4230310;27;5689;-64
2023/04/12 15:05:37;;;;;;;;;;;;;;;15.62;56.55;95829.47;4233999;27;5647;-63
2023/04/12 15:07:40;;;;;;;;;;;;;;;15.57;56.80;95814.22;4233443;28;5778;-63
2023/04/12 15:09:43;;;;;;;;;;;;;;;15.48;56.78;95826.34;4234467;27;5884;-64
2023/04/12 15:11:53;;;;;;;;;;;;;;;15.39;57.12;95835.81;4233437;27;5765;-62
2023/04/12 15:13:56;;;;;;;;;;;;;;;15.28;57.46;95831.41;4234913;27;5704;-62
2023/04/12 15:16:00;;;;;;;;;;;;;;;15.22;57.52;95837.72;4233783;27;5806;-66
2023/04/12 15:18:03;;;;;;;;;;;;;;;15.21;57.55;95842.25;4227750;27;5634;-64
2023/04/12 15:20:10;;;;;;;;;;;;;;;15.19;57.79;95843.53;4226785;28;5664;-63
2023/04/12 15:22:13;;;;;;;;;;;;;;;15.14;58.06;95847.72;4228756;27;5666;-63
2023/04/12 15:24:16;;;;;;;;;;;;;;;15.07;58.10;95847.09;4239044;27;5642;-62
2023/04/12 15:26:19;;;;;;;;;;;;;;;15.06;58.06;95837.50;4235732;27;6407;-62
2023/04/12 15:28:22;;;;;;;;;;;;;;;15.06;58.48;95844.66;4229046;27;5825;-63
2023/04/12 15:30:25;;;;;;;;;;;;;;;15.03;58.70;95845.97;4233459;27;5717;-63
2023/04/12 15:32:28;;;;;;;;;;;;;;;14.96;58.59;95833.91;4229162;27;7085;-63
2023/04/12 15:34:32;;;;;;;;;;;;;;;14.94;58.96;95859.91;4240200;27;6585;-62
2023/04/12 15:36:37;;;;;;;;;;;;;;;14.80;59.13;95862.91;4217935;28;5805;-60
2023/04/12 15:38:42;;;;;;;;;;;;;;;14.73;59.46;95872.94;4231756;27;5737;-62
2023/04/12 15:40:46;;;;;;;;;;;;;;;14.69;59.52;95874.44;4234384;27;5930;-61
2023/04/12 15:42:48;;;;;;;;;;;;;;;14.71;59.29;95874.19;4222024;27;6803;-60
2023/04/12 15:44:51;;;;;;;;;;;;;;;14.71;59.30;95874.19;4229892;27;5718;-61
2023/04/12 15:46:54;;;;;;;;;;;;;;;14.65;59.54;95865.34;4227586;27;5734;-59
2023/04/12 15:49:12;;;;;;;;;;;;;;;14.68;59.61;95866.69;4228265;27;5681;-61